sensor_id;sensor_type;location;lat;lon;timestamp;pressure;altitude;pressure_sealevel;temperature;humidity
59487;BME280;45298;54.918;73.504;2024-02-23T00:00:17;102322.13;;;-29.14;67.11
59487;BME280;45298;54.918;73.504;2024-02-23T00:02:46;102331.06;;;-29.09;67.09
59487;BME280;45298;54.918;73.504;2024-02-23T00:05:15;102352.22;;;-29.00;67.20
59487;BME280;45298;54.918;73.504;2024-02-23T00:07:44;102344.47;;;-28.96;67.32
59487;BME280;45298;54.918;73.504;2024-02-23T00:10:13;102341.28;;;-28.95;67.28
59487;BME280;45298;54.918;73.504;2024-02-23T00:12:42;102349.84;;;-28.93;67.04
59487;BME280;45298;54.918;73.504;2024-02-23T00:15:16;102330.63;;;-28.94;67.06
59487;BME280;45298;54.918;73.504;2024-02-23T00:17:45;102334.50;;;-28.96;66.71
59487;BME280;45298;54.918;73.504;2024-02-23T00:20:13;102322.22;;;-29.07;66.63
59487;BME280;45298;54.918;73.504;2024-02-23T00:22:46;102334.38;;;-29.03;66.82
59487;BME280;45298;54.918;73.504;2024-02-23T00:25:15;102334.88;;;-29.05;66.59
59487;BME280;45298;54.918;73.504;2024-02-23T00:27:43;102326.19;;;-29.15;66.37
59487;BME280;45298;54.918;73.504;2024-02-23T00:30:13;102337.84;;;-29.08;66.55
59487;BME280;45298;54.918;73.504;2024-02-23T00:32:42;102339.31;;;-29.16;66.79
59487;BME280;45298;54.918;73.504;2024-02-23T00:35:11;102349.19;;;-29.10;66.85
59487;BME280;45298;54.918;73.504;2024-02-23T00:37:40;102344.00;;;-29.12;66.67
59487;BME280;45298;54.918;73.504;2024-02-23T00:40:11;102335.84;;;-29.11;66.89
59487;BME280;45298;54.918;73.504;2024-02-23T00:42:40;102313.13;;;-29.19;66.70
59487;BME280;45298;54.918;73.504;2024-02-23T00:45:10;102315.09;;;-29.30;66.80
59487;BME280;45298;54.918;73.504;2024-02-23T00:47:39;102340.50;;;-29.19;66.65
59487;BME280;45298;54.918;73.504;2024-02-23T00:50:08;102325.34;;;-29.21;66.91
59487;BME280;45298;54.918;73.504;2024-02-23T00:52:37;102332.94;;;-29.14;66.99
59487;BME280;45298;54.918;73.504;2024-02-23T00:55:08;102334.94;;;-29.11;66.89
59487;BME280;45298;54.918;73.504;2024-02-23T00:57:38;102334.34;;;-29.16;66.82
59487;BME280;45298;54.918;73.504;2024-02-23T01:00:07;102330.47;;;-29.14;67.30
59487;BME280;45298;54.918;73.504;2024-02-23T01:02:38;102323.22;;;-29.12;66.91
59487;BME280;45298;54.918;73.504;2024-02-23T01:05:08;102331.69;;;-29.04;66.83
59487;BME280;45298;54.918;73.504;2024-02-23T01:07:38;102354.88;;;-28.98;66.99
59487;BME280;45298;54.918;73.504;2024-02-23T01:10:07;102342.66;;;-28.97;67.07
59487;BME280;45298;54.918;73.504;2024-02-23T01:12:39;102285.38;;;-29.23;67.08
59487;BME280;45298;54.918;73.504;2024-02-23T01:15:09;102336.38;;;-28.87;67.20
59487;BME280;45298;54.918;73.504;2024-02-23T01:17:38;102333.03;;;-28.88;67.36
59487;BME280;45298;54.918;73.504;2024-02-23T01:20:08;102330.72;;;-28.86;66.62
59487;BME280;45298;54.918;73.504;2024-02-23T01:22:37;102339.69;;;-28.81;66.86
59487;BME280;45298;54.918;73.504;2024-02-23T01:25:18;102335.41;;;-28.82;66.85
59487;BME280;45298;54.918;73.504;2024-02-23T01:27:48;102354.13;;;-28.79;67.00
59487;BME280;45298;54.918;73.504;2024-02-23T01:30:17;102349.22;;;-28.97;66.84
59487;BME280;45298;54.918;73.504;2024-02-23T01:32:47;102336.63;;;-29.17;66.69
59487;BME280;45298;54.918;73.504;2024-02-23T01:35:31;102333.72;;;-29.20;66.83
59487;BME280;45298;54.918;73.504;2024-02-23T01:38:00;102320.75;;;-29.31;66.76
59487;BME280;45298;54.918;73.504;2024-02-23T01:40:29;102333.22;;;-29.18;66.93
59487;BME280;45298;54.918;73.504;2024-02-23T01:43:02;102324.47;;;-29.21;67.03
59487;BME280;45298;54.918;73.504;2024-02-23T01:45:32;102336.53;;;-29.12;66.73
59487;BME280;45298;54.918;73.504;2024-02-23T01:48:01;102311.53;;;-29.19;66.91
59487;BME280;45298;54.918;73.504;2024-02-23T01:50:44;102313.88;;;-29.08;67.05
59487;BME280;45298;54.918;73.504;2024-02-23T01:53:13;102332.72;;;-28.97;67.02
59487;BME280;45298;54.918;73.504;2024-02-23T01:55:43;102340.34;;;-28.95;66.85
59487;BME280;45298;54.918;73.504;2024-02-23T01:58:14;102359.47;;;-28.88;66.95
59487;BME280;45298;54.918;73.504;2024-02-23T02:00:43;102330.31;;;-29.02;66.73
59487;BME280;45298;54.918;73.504;2024-02-23T02:03:12;102356.41;;;-28.93;66.73
59487;BME280;45298;54.918;73.504;2024-02-23T02:05:41;102332.38;;;-29.05;66.98
59487;BME280;45298;54.918;73.504;2024-02-23T02:08:10;102331.56;;;-29.12;66.57
59487;BME280;45298;54.918;73.504;2024-02-23T02:10:40;102326.59;;;-29.12;66.62
59487;BME280;45298;54.918;73.504;2024-02-23T02:13:12;102358.59;;;-28.89;66.80
59487;BME280;45298;54.918;73.504;2024-02-23T02:15:41;102362.38;;;-28.85;66.95
59487;BME280;45298;54.918;73.504;2024-02-23T02:18:12;102351.41;;;-28.93;66.57
59487;BME280;45298;54.918;73.504;2024-02-23T02:20:51;102338.25;;;-29.05;66.67
59487;BME280;45298;54.918;73.504;2024-02-23T02:23:23;102348.19;;;-29.05;66.50
59487;BME280;45298;54.918;73.504;2024-02-23T02:25:58;102343.31;;;-29.11;66.53
59487;BME280;45298;54.918;73.504;2024-02-23T02:28:27;102358.97;;;-28.99;66.62
59487;BME280;45298;54.918;73.504;2024-02-23T02:31:08;102296.22;;;-29.35;66.63
59487;BME280;45298;54.918;73.504;2024-02-23T02:33:37;102366.16;;;-28.95;66.72
59487;BME280;45298;54.918;73.504;2024-02-23T02:36:08;102354.88;;;-28.98;66.53
59487;BME280;45298;54.918;73.504;2024-02-23T02:38:37;102348.06;;;-28.94;66.75
59487;BME280;45298;54.918;73.504;2024-02-23T02:41:06;102372.66;;;-28.77;66.70
59487;BME280;45298;54.918;73.504;2024-02-23T02:43:35;102364.38;;;-28.70;66.72
59487;BME280;45298;54.918;73.504;2024-02-23T02:46:05;102357.41;;;-28.72;66.85
59487;BME280;45298;54.918;73.504;2024-02-23T02:48:33;102365.97;;;-28.70;66.77
59487;BME280;45298;54.918;73.504;2024-02-23T02:51:02;102384.69;;;-28.67;66.61
59487;BME280;45298;54.918;73.504;2024-02-23T02:53:31;102374.53;;;-28.81;66.83
59487;BME280;45298;54.918;73.504;2024-02-23T02:56:00;102385.66;;;-28.72;66.81
59487;BME280;45298;54.918;73.504;2024-02-23T02:58:29;102383.81;;;-28.67;66.94
59487;BME280;45298;54.918;73.504;2024-02-23T03:00:58;102362.09;;;-28.81;66.90
59487;BME280;45298;54.918;73.504;2024-02-23T03:03:27;102386.59;;;-28.71;66.79
59487;BME280;45298;54.918;73.504;2024-02-23T03:05:56;102368.88;;;-28.80;66.86
59487;BME280;45298;54.918;73.504;2024-02-23T03:08:27;102321.75;;;-29.04;66.94
59487;BME280;45298;54.918;73.504;2024-02-23T03:10:56;102373.63;;;-28.69;66.94
59487;BME280;45298;54.918;73.504;2024-02-23T03:13:25;102378.72;;;-28.62;67.08
59487;BME280;45298;54.918;73.504;2024-02-23T03:15:54;102414.22;;;-28.44;67.04
59487;BME280;45298;54.918;73.504;2024-02-23T03:18:23;102373.47;;;-28.44;67.21
59487;BME280;45298;54.918;73.504;2024-02-23T03:20:51;102370.19;;;-28.25;67.42
59487;BME280;45298;54.918;73.504;2024-02-23T03:23:20;102382.50;;;-28.06;67.40
59487;BME280;45298;54.918;73.504;2024-02-23T03:25:49;102378.69;;;-27.97;66.89
59487;BME280;45298;54.918;73.504;2024-02-23T03:28:18;102382.97;;;-27.83;67.40
59487;BME280;45298;54.918;73.504;2024-02-23T03:30:47;102354.53;;;-27.78;67.46
59487;BME280;45298;54.918;73.504;2024-02-23T03:33:16;102350.28;;;-27.38;66.72
59487;BME280;45298;54.918;73.504;2024-02-23T03:35:45;102356.41;;;-26.96;66.53
59487;BME280;45298;54.918;73.504;2024-02-23T03:38:14;102377.81;;;-26.36;66.13
59487;BME280;45298;54.918;73.504;2024-02-23T03:40:43;102298.31;;;-26.11;65.96
59487;BME280;45298;54.918;73.504;2024-02-23T03:43:11;102357.88;;;-24.87;65.92
59487;BME280;45298;54.918;73.504;2024-02-23T03:45:40;102357.03;;;-24.07;65.03
59487;BME280;45298;54.918;73.504;2024-02-23T03:48:09;102361.09;;;-23.55;64.23
59487;BME280;45298;54.918;73.504;2024-02-23T03:50:38;102353.53;;;-23.01;63.66
59487;BME280;45298;54.918;73.504;2024-02-23T03:53:07;102353.88;;;-22.36;63.99
59487;BME280;45298;54.918;73.504;2024-02-23T03:55:36;102358.94;;;-21.87;62.91
59487;BME280;45298;54.918;73.504;2024-02-23T03:58:09;102343.53;;;-21.66;63.29
59487;BME280;45298;54.918;73.504;2024-02-23T04:00:38;102359.66;;;-21.88;62.63
59487;BME280;45298;54.918;73.504;2024-02-23T04:03:07;102303.69;;;-22.34;62.58
59487;BME280;45298;54.918;73.504;2024-02-23T04:05:38;102367.63;;;-21.77;62.92
59487;BME280;45298;54.918;73.504;2024-02-23T04:08:07;102355.66;;;-22.18;63.09
59487;BME280;45298;54.918;73.504;2024-02-23T04:10:36;102359.97;;;-22.49;63.89
59487;BME280;45298;54.918;73.504;2024-02-23T04:13:05;102342.75;;;-23.00;63.58
59487;BME280;45298;54.918;73.504;2024-02-23T04:15:34;102360.41;;;-23.07;64.21
59487;BME280;45298;54.918;73.504;2024-02-23T04:18:06;102353.84;;;-23.14;64.59
59487;BME280;45298;54.918;73.504;2024-02-23T04:20:39;102293.66;;;-23.59;64.31
59487;BME280;45298;54.918;73.504;2024-02-23T04:23:19;102350.19;;;-23.32;64.52
59487;BME280;45298;54.918;73.504;2024-02-23T04:25:50;102337.25;;;-23.28;64.99
59487;BME280;45298;54.918;73.504;2024-02-23T04:28:20;102338.75;;;-23.14;65.12
59487;BME280;45298;54.918;73.504;2024-02-23T04:30:48;102334.13;;;-22.95;64.85
59487;BME280;45298;54.918;73.504;2024-02-23T04:33:20;102341.00;;;-22.78;64.58
59487;BME280;45298;54.918;73.504;2024-02-23T04:35:49;102358.31;;;-22.65;64.76
59487;BME280;45298;54.918;73.504;2024-02-23T04:38:18;102362.94;;;-22.84;64.20
59487;BME280;45298;54.918;73.504;2024-02-23T04:40:47;102349.47;;;-23.31;64.24
59487;BME280;45298;54.918;73.504;2024-02-23T04:43:16;102353.09;;;-23.36;64.32
59487;BME280;45298;54.918;73.504;2024-02-23T04:45:45;102369.72;;;-23.30;64.27
59487;BME280;45298;54.918;73.504;2024-02-23T04:48:14;102368.97;;;-23.21;64.39
59487;BME280;45298;54.918;73.504;2024-02-23T04:50:43;102359.78;;;-23.44;64.34
59487;BME280;45298;54.918;73.504;2024-02-23T04:53:13;102367.16;;;-23.46;64.48
59487;BME280;45298;54.918;73.504;2024-02-23T04:55:43;102352.81;;;-23.54;64.47
59487;BME280;45298;54.918;73.504;2024-02-23T04:58:12;102363.91;;;-23.45;64.79
59487;BME280;45298;54.918;73.504;2024-02-23T05:00:54;102375.00;;;-23.43;64.56
59487;BME280;45298;54.918;73.504;2024-02-23T05:03:24;102366.72;;;-23.34;64.45
59487;BME280;45298;54.918;73.504;2024-02-23T05:05:55;102361.56;;;-23.20;64.55
59487;BME280;45298;54.918;73.504;2024-02-23T05:08:24;102375.41;;;-22.93;64.58
59487;BME280;45298;54.918;73.504;2024-02-23T05:10:55;102363.97;;;-22.59;64.93
59487;BME280;45298;54.918;73.504;2024-02-23T05:13:24;102342.25;;;-22.58;64.91
59487;BME280;45298;54.918;73.504;2024-02-23T05:15:55;102349.38;;;-22.54;64.73
59487;BME280;45298;54.918;73.504;2024-02-23T05:18:24;102358.38;;;-22.40;64.18
59487;BME280;45298;54.918;73.504;2024-02-23T05:20:53;102358.72;;;-22.37;64.05
59487;BME280;45298;54.918;73.504;2024-02-23T05:23:22;102328.53;;;-22.37;64.29
59487;BME280;45298;54.918;73.504;2024-02-23T05:25:51;102354.53;;;-22.13;64.76
59487;BME280;45298;54.918;73.504;2024-02-23T05:28:20;102359.66;;;-21.88;63.98
59487;BME280;45298;54.918;73.504;2024-02-23T05:30:49;102344.63;;;-21.80;64.33
59487;BME280;45298;54.918;73.504;2024-02-23T05:33:18;102340.06;;;-21.75;63.58
59487;BME280;45298;54.918;73.504;2024-02-23T05:35:49;102367.88;;;-21.57;63.73
59487;BME280;45298;54.918;73.504;2024-02-23T05:38:18;102358.88;;;-21.31;63.41
59487;BME280;45298;54.918;73.504;2024-02-23T05:40:48;102303.75;;;-21.52;63.01
59487;BME280;45298;54.918;73.504;2024-02-23T05:43:17;102361.66;;;-21.36;63.42
59487;BME280;45298;54.918;73.504;2024-02-23T05:45:49;102365.41;;;-21.33;63.21
59487;BME280;45298;54.918;73.504;2024-02-23T05:48:18;102356.31;;;-21.39;62.93
59487;BME280;45298;54.918;73.504;2024-02-23T05:50:48;102362.56;;;-21.36;62.61
59487;BME280;45298;54.918;73.504;2024-02-23T05:53:16;102363.63;;;-21.09;63.01
59487;BME280;45298;54.918;73.504;2024-02-23T05:55:46;102360.25;;;-20.58;63.02
59487;BME280;45298;54.918;73.504;2024-02-23T05:58:15;102363.09;;;-19.95;62.94
59487;BME280;45298;54.918;73.504;2024-02-23T06:00:45;102372.47;;;-19.94;62.21
59487;BME280;45298;54.918;73.504;2024-02-23T06:03:14;102348.78;;;-20.21;61.93
59487;BME280;45298;54.918;73.504;2024-02-23T06:05:43;102349.41;;;-20.15;61.69
59487;BME280;45298;54.918;73.504;2024-02-23T06:08:12;102362.19;;;-19.69;61.47
59487;BME280;45298;54.918;73.504;2024-02-23T06:10:41;102360.69;;;-19.50;61.55
59487;BME280;45298;54.918;73.504;2024-02-23T06:13:12;102351.06;;;-19.71;61.69
59487;BME280;45298;54.918;73.504;2024-02-23T06:15:41;102354.91;;;-19.84;61.68
59487;BME280;45298;54.918;73.504;2024-02-23T06:18:11;102319.69;;;-20.09;61.38
59487;BME280;45298;54.918;73.504;2024-02-23T06:20:40;102348.38;;;-19.82;61.44
59487;BME280;45298;54.918;73.504;2024-02-23T06:23:10;102374.38;;;-19.39;61.43
59487;BME280;45298;54.918;73.504;2024-02-23T06:25:39;102364.94;;;-18.96;61.38
59487;BME280;45298;54.918;73.504;2024-02-23T06:28:11;102352.28;;;-18.59;60.94
59487;BME280;45298;54.918;73.504;2024-02-23T06:30:39;102312.25;;;-18.63;60.89
59487;BME280;45298;54.918;73.504;2024-02-23T06:33:08;102352.19;;;-18.42;60.73
59487;BME280;45298;54.918;73.504;2024-02-23T06:35:37;102363.84;;;-18.16;60.73
59487;BME280;45298;54.918;73.504;2024-02-23T06:38:06;102359.13;;;-17.83;60.77
59487;BME280;45298;54.918;73.504;2024-02-23T06:40:47;102350.91;;;-17.81;60.09
59487;BME280;45298;54.918;73.504;2024-02-23T06:43:19;102354.88;;;-17.74;60.20
59487;BME280;45298;54.918;73.504;2024-02-23T06:45:52;102355.00;;;-17.91;60.42
59487;BME280;45298;54.918;73.504;2024-02-23T06:48:28;102311.25;;;-18.18;60.22
59487;BME280;45298;54.918;73.504;2024-02-23T06:51:16;102245.47;;;-18.27;60.26
59487;BME280;45298;54.918;73.504;2024-02-23T06:53:52;102358.22;;;-17.26;60.25
59487;BME280;45298;54.918;73.504;2024-02-23T06:56:22;102354.03;;;-16.96;60.01
59487;BME280;45298;54.918;73.504;2024-02-23T06:58:51;102352.31;;;-16.66;59.32
59487;BME280;45298;54.918;73.504;2024-02-23T07:01:21;102350.56;;;-16.47;59.84
59487;BME280;45298;54.918;73.504;2024-02-23T07:03:51;102309.03;;;-16.27;59.78
59487;BME280;45298;54.918;73.504;2024-02-23T07:06:20;102332.78;;;-15.85;59.74
59487;BME280;45298;54.918;73.504;2024-02-23T07:08:48;102338.81;;;-15.52;59.27
59487;BME280;45298;54.918;73.504;2024-02-23T07:11:17;102330.63;;;-15.37;58.81
59487;BME280;45298;54.918;73.504;2024-02-23T07:13:47;102342.63;;;-15.04;59.48
59487;BME280;45298;54.918;73.504;2024-02-23T07:16:16;102340.50;;;-15.20;58.74
59487;BME280;45298;54.918;73.504;2024-02-23T07:18:45;102328.09;;;-15.37;58.76
59487;BME280;45298;54.918;73.504;2024-02-23T07:21:17;102327.00;;;-15.51;59.52
59487;BME280;45298;54.918;73.504;2024-02-23T07:23:47;102331.03;;;-15.43;59.39
59487;BME280;45298;54.918;73.504;2024-02-23T07:26:16;102329.75;;;-15.38;58.50
59487;BME280;45298;54.918;73.504;2024-02-23T07:28:44;102333.47;;;-15.44;59.26
59487;BME280;45298;54.918;73.504;2024-02-23T07:31:13;102340.75;;;-15.59;59.23
59487;BME280;45298;54.918;73.504;2024-02-23T07:33:44;102325.06;;;-15.97;59.04
59487;BME280;45298;54.918;73.504;2024-02-23T07:36:20;102315.00;;;-15.95;59.50
59487;BME280;45298;54.918;73.504;2024-02-23T07:38:52;102322.09;;;-15.81;58.37
59487;BME280;45298;54.918;73.504;2024-02-23T07:41:20;102310.63;;;-15.65;59.06
59487;BME280;45298;54.918;73.504;2024-02-23T07:43:49;102320.81;;;-15.75;58.78
59487;BME280;45298;54.918;73.504;2024-02-23T07:46:18;102307.03;;;-15.57;59.11
59487;BME280;45298;54.918;73.504;2024-02-23T07:48:50;102307.72;;;-15.37;59.06
59487;BME280;45298;54.918;73.504;2024-02-23T07:51:19;102299.06;;;-15.29;58.74
59487;BME280;45298;54.918;73.504;2024-02-23T07:53:48;102309.50;;;-15.26;58.71
59487;BME280;45298;54.918;73.504;2024-02-23T07:56:16;102301.94;;;-15.57;58.97
59487;BME280;45298;54.918;73.504;2024-02-23T07:58:58;102299.28;;;-15.58;59.11
59487;BME280;45298;54.918;73.504;2024-02-23T08:01:27;102311.09;;;-15.48;57.94
59487;BME280;45298;54.918;73.504;2024-02-23T08:03:58;102291.81;;;-15.77;57.81
59487;BME280;45298;54.918;73.504;2024-02-23T08:06:28;102300.97;;;-15.69;57.88
59487;BME280;45298;54.918;73.504;2024-02-23T08:08:57;102312.25;;;-15.55;58.34
59487;BME280;45298;54.918;73.504;2024-02-23T08:11:28;102294.75;;;-15.83;58.58
59487;BME280;45298;54.918;73.504;2024-02-23T08:14:01;102313.75;;;-16.11;58.12
59487;BME280;45298;54.918;73.504;2024-02-23T08:16:31;102306.00;;;-16.02;57.81
59487;BME280;45298;54.918;73.504;2024-02-23T08:19:08;102291.13;;;-16.07;58.57
59487;BME280;45298;54.918;73.504;2024-02-23T08:21:37;102297.66;;;-15.68;58.46
59487;BME280;45298;54.918;73.504;2024-02-23T08:24:06;102284.69;;;-15.61;57.92
59487;BME280;45298;54.918;73.504;2024-02-23T08:26:35;102251.47;;;-15.62;58.11
59487;BME280;45298;54.918;73.504;2024-02-23T08:29:08;102293.00;;;-15.41;58.52
59487;BME280;45298;54.918;73.504;2024-02-23T08:31:37;102281.84;;;-15.54;58.21
59487;BME280;45298;54.918;73.504;2024-02-23T08:34:09;102274.41;;;-15.73;57.86
59487;BME280;45298;54.918;73.504;2024-02-23T08:36:38;102251.84;;;-16.01;58.25
59487;BME280;45298;54.918;73.504;2024-02-23T08:39:07;102293.59;;;-15.76;58.63
59487;BME280;45298;54.918;73.504;2024-02-23T08:41:37;102292.72;;;-15.77;57.09
59487;BME280;45298;54.918;73.504;2024-02-23T08:44:07;102284.19;;;-15.77;58.02
59487;BME280;45298;54.918;73.504;2024-02-23T08:46:36;102261.38;;;-15.88;58.02
59487;BME280;45298;54.918;73.504;2024-02-23T08:49:07;102293.94;;;-15.51;58.28
59487;BME280;45298;54.918;73.504;2024-02-23T08:51:38;102295.50;;;-15.31;57.19
59487;BME280;45298;54.918;73.504;2024-02-23T08:54:09;102225.00;;;-15.54;57.29
59487;BME280;45298;54.918;73.504;2024-02-23T08:56:38;102285.25;;;-15.10;57.55
59487;BME280;45298;54.918;73.504;2024-02-23T08:59:20;102295.00;;;-15.37;58.21
59487;BME280;45298;54.918;73.504;2024-02-23T09:01:51;102294.59;;;-15.64;57.40
59487;BME280;45298;54.918;73.504;2024-02-23T09:04:19;102293.59;;;-15.76;57.19
59487;BME280;45298;54.918;73.504;2024-02-23T09:06:51;102284.00;;;-15.91;58.67
59487;BME280;45298;54.918;73.504;2024-02-23T09:09:21;102279.19;;;-16.08;57.95
59487;BME280;45298;54.918;73.504;2024-02-23T09:11:50;102259.13;;;-16.26;58.38
59487;BME280;45298;54.918;73.504;2024-02-23T09:14:22;102267.78;;;-16.24;57.91
59487;BME280;45298;54.918;73.504;2024-02-23T09:16:51;102290.25;;;-16.08;59.23
59487;BME280;45298;54.918;73.504;2024-02-23T09:19:21;102295.47;;;-16.06;58.31
59487;BME280;45298;54.918;73.504;2024-02-23T09:22:03;102302.56;;;-16.13;59.14
59487;BME280;45298;54.918;73.504;2024-02-23T09:24:32;102270.56;;;-16.31;57.85
59487;BME280;45298;54.918;73.504;2024-02-23T09:27:01;102294.44;;;-16.29;58.76
59487;BME280;45298;54.918;73.504;2024-02-23T09:29:31;102294.47;;;-16.19;58.46
59487;BME280;45298;54.918;73.504;2024-02-23T09:32:01;102297.00;;;-16.39;57.56
59487;BME280;45298;54.918;73.504;2024-02-23T09:34:30;102304.09;;;-16.46;57.85
59487;BME280;45298;54.918;73.504;2024-02-23T09:36:58;102286.31;;;-16.46;58.41
59487;BME280;45298;54.918;73.504;2024-02-23T09:39:27;102305.50;;;-16.29;58.08
59487;BME280;45298;54.918;73.504;2024-02-23T09:41:58;102283.00;;;-16.24;58.45
59487;BME280;45298;54.918;73.504;2024-02-23T09:44:32;102285.53;;;-16.14;59.24
59487;BME280;45298;54.918;73.504;2024-02-23T09:47:05;102288.97;;;-16.13;59.05
59487;BME280;45298;54.918;73.504;2024-02-23T09:49:41;102285.53;;;-16.34;58.28
59487;BME280;45298;54.918;73.504;2024-02-23T09:52:10;102280.72;;;-16.52;58.73
59487;BME280;45298;54.918;73.504;2024-02-23T09:54:39;102288.31;;;-16.52;59.02
59487;BME280;45298;54.918;73.504;2024-02-23T09:57:08;102288.47;;;-16.50;59.33
59487;BME280;45298;54.918;73.504;2024-02-23T09:59:38;102283.88;;;-16.65;59.19
59487;BME280;45298;54.918;73.504;2024-02-23T10:02:16;102293.53;;;-16.71;57.84
59487;BME280;45298;54.918;73.504;2024-02-23T10:04:47;102286.91;;;-16.79;59.18
59487;BME280;45298;54.918;73.504;2024-02-23T10:07:18;102280.63;;;-16.93;58.47
59487;BME280;45298;54.918;73.504;2024-02-23T10:09:47;102246.09;;;-17.22;58.25
59487;BME280;45298;54.918;73.504;2024-02-23T10:12:18;102268.34;;;-16.99;58.22
59487;BME280;45298;54.918;73.504;2024-02-23T10:14:49;102298.06;;;-16.77;59.20
59487;BME280;45298;54.918;73.504;2024-02-23T10:17:18;102247.41;;;-17.07;57.96
59487;BME280;45298;54.918;73.504;2024-02-23T10:19:50;102278.63;;;-16.87;58.98
59487;BME280;45298;54.918;73.504;2024-02-23T10:22:19;102297.81;;;-16.80;58.20
59487;BME280;45298;54.918;73.504;2024-02-23T10:24:51;102301.53;;;-16.77;59.21
59487;BME280;45298;54.918;73.504;2024-02-23T10:27:21;102298.97;;;-16.77;58.30
59487;BME280;45298;54.918;73.504;2024-02-23T10:29:51;102294.88;;;-16.75;59.18
59487;BME280;45298;54.918;73.504;2024-02-23T10:32:20;102295.66;;;-16.76;58.24
59487;BME280;45298;54.918;73.504;2024-02-23T10:35:18;102307.25;;;-16.69;58.02
59487;BME280;45298;54.918;73.504;2024-02-23T10:37:49;102311.44;;;-16.59;58.82
59487;BME280;45298;54.918;73.504;2024-02-23T10:40:48;102294.16;;;-16.63;58.52
59487;BME280;45298;54.918;73.504;2024-02-23T10:43:20;102296.06;;;-16.61;58.67
59487;BME280;45298;54.918;73.504;2024-02-23T10:45:53;102297.97;;;-16.68;59.01
59487;BME280;45298;54.918;73.504;2024-02-23T10:48:35;102305.41;;;-16.80;58.42
59487;BME280;45298;54.918;73.504;2024-02-23T10:51:06;102312.53;;;-16.87;58.26
59487;BME280;45298;54.918;73.504;2024-02-23T10:53:36;102318.22;;;-16.89;59.02
59487;BME280;45298;54.918;73.504;2024-02-23T10:56:17;102306.31;;;-17.00;59.11
59487;BME280;45298;54.918;73.504;2024-02-23T10:58:46;102304.75;;;-17.09;59.07
59487;BME280;45298;54.918;73.504;2024-02-23T11:01:16;102317.16;;;-17.12;58.90
59487;BME280;45298;54.918;73.504;2024-02-23T11:03:51;102311.78;;;-17.25;58.43
59487;BME280;45298;54.918;73.504;2024-02-23T11:06:27;102269.47;;;-17.45;59.41
59487;BME280;45298;54.918;73.504;2024-02-23T11:09:08;102317.13;;;-17.22;59.09
59487;BME280;45298;54.918;73.504;2024-02-23T11:11:40;102308.03;;;-17.39;58.98
59487;BME280;45298;54.918;73.504;2024-02-23T11:14:38;102324.44;;;-17.36;59.42
59487;BME280;45298;54.918;73.504;2024-02-23T11:17:18;102308.28;;;-17.46;59.25
59487;BME280;45298;54.918;73.504;2024-02-23T11:19:50;102308.41;;;-17.45;58.95
59487;BME280;45298;54.918;73.504;2024-02-23T11:22:35;102318.41;;;-17.46;59.01
59487;BME280;45298;54.918;73.504;2024-02-23T11:25:07;102313.16;;;-17.58;59.19
59487;BME280;45298;54.918;73.504;2024-02-23T11:27:40;102302.47;;;-17.65;58.49
59487;BME280;45298;54.918;73.504;2024-02-23T11:30:12;102302.81;;;-17.70;59.33
59487;BME280;45298;54.918;73.504;2024-02-23T11:32:46;102313.81;;;-17.70;58.96
59487;BME280;45298;54.918;73.504;2024-02-23T11:35:25;102310.78;;;-17.76;58.82
59487;BME280;45298;54.918;73.504;2024-02-23T11:37:56;102310.84;;;-17.85;59.53
59487;BME280;45298;54.918;73.504;2024-02-23T11:40:30;102320.63;;;-17.79;59.40
59487;BME280;45298;54.918;73.504;2024-02-23T11:42:59;102323.34;;;-17.86;59.54
59487;BME280;45298;54.918;73.504;2024-02-23T11:45:30;102311.88;;;-18.02;58.94
59487;BME280;45298;54.918;73.504;2024-02-23T11:47:59;102315.44;;;-18.00;59.17
59487;BME280;45298;54.918;73.504;2024-02-23T11:50:35;102314.13;;;-18.05;59.90
59487;BME280;45298;54.918;73.504;2024-02-23T11:53:06;102313.56;;;-18.11;59.13
59487;BME280;45298;54.918;73.504;2024-02-23T11:55:35;102311.38;;;-18.17;60.30
59487;BME280;45298;54.918;73.504;2024-02-23T11:58:05;102266.59;;;-18.46;59.94
59487;BME280;45298;54.918;73.504;2024-02-23T12:00:45;102320.19;;;-18.22;60.48
59487;BME280;45298;54.918;73.504;2024-02-23T12:03:14;102311.78;;;-18.31;60.91
59487;BME280;45298;54.918;73.504;2024-02-23T12:05:44;102314.38;;;-18.40;60.44
59487;BME280;45298;54.918;73.504;2024-02-23T12:08:13;102330.03;;;-18.44;60.60
59487;BME280;45298;54.918;73.504;2024-02-23T12:10:42;102327.13;;;-18.58;60.25
59487;BME280;45298;54.918;73.504;2024-02-23T12:13:11;102322.97;;;-18.66;60.64
59487;BME280;45298;54.918;73.504;2024-02-23T12:15:41;102321.50;;;-18.73;60.85
59487;BME280;45298;54.918;73.504;2024-02-23T12:18:13;102336.28;;;-18.77;60.77
59487;BME280;45298;54.918;73.504;2024-02-23T12:20:42;102257.88;;;-19.23;60.56
59487;BME280;45298;54.918;73.504;2024-02-23T12:23:12;102310.50;;;-19.01;61.18
59487;BME280;45298;54.918;73.504;2024-02-23T12:25:53;102286.63;;;-19.22;61.24
59487;BME280;45298;54.918;73.504;2024-02-23T12:28:23;102317.50;;;-19.07;61.29
59487;BME280;45298;54.918;73.504;2024-02-23T12:31:04;102314.84;;;-19.18;61.47
59487;BME280;45298;54.918;73.504;2024-02-23T12:33:35;102316.38;;;-19.28;61.63
59487;BME280;45298;54.918;73.504;2024-02-23T12:36:05;102327.38;;;-19.28;62.03
59487;BME280;45298;54.918;73.504;2024-02-23T12:38:35;102314.91;;;-19.44;61.72
59487;BME280;45298;54.918;73.504;2024-02-23T12:41:05;102304.53;;;-19.56;61.82
59487;BME280;45298;54.918;73.504;2024-02-23T12:43:34;102319.53;;;-19.66;62.34
59487;BME280;45298;54.918;73.504;2024-02-23T12:46:06;102329.19;;;-19.80;61.87
59487;BME280;45298;54.918;73.504;2024-02-23T12:48:37;102327.75;;;-19.95;62.62